createdAt,value
2023-02-15T00:00:12.038Z,102155.38
2023-02-15T00:02:59.594Z,102161.41
2023-02-15T00:05:27.596Z,102171.63
2023-02-15T00:07:55.120Z,102173.47
2023-02-15T00:10:24.480Z,102166.47
2023-02-15T00:12:52.061Z,102159.75
2023-02-15T00:15:19.912Z,102168.34
2023-02-15T00:17:47.438Z,102161.63
2023-02-15T00:20:16.505Z,102158.13
2023-02-15T00:22:44.041Z,102157.19
2023-02-15T00:25:11.906Z,102163.31
2023-02-15T00:27:39.546Z,102157.94
2023-02-15T00:30:08.057Z,102154.44
2023-02-15T00:32:35.780Z,102148.50
2023-02-15T00:35:03.921Z,102156.25
2023-02-15T00:37:31.662Z,102151.78
2023-02-15T00:39:59.571Z,102144.91
2023-02-15T00:42:27.273Z,102151.94
2023-02-15T00:44:55.099Z,102149.38
2023-02-15T00:47:22.632Z,102147.59
2023-02-15T00:49:50.486Z,102139.78
2023-02-15T00:52:19.231Z,102147.78
2023-02-15T00:54:47.098Z,102135.53
2023-02-15T00:57:14.649Z,102136.19
2023-02-15T00:59:42.465Z,102135.31
2023-02-15T01:02:10.120Z,102125.84
2023-02-15T01:04:37.941Z,102117.97
2023-02-15T01:07:05.740Z,102123.13
2023-02-15T01:09:34.816Z,102118.22
2023-02-15T01:12:04.349Z,102120.84
2023-02-15T01:14:32.248Z,102132.09
2023-02-15T01:16:59.837Z,102125.09
2023-02-15T01:19:27.696Z,102122.41
2023-02-15T01:21:55.225Z,102121.59
2023-02-15T01:24:23.056Z,102124.03
2023-02-15T01:26:50.665Z,102118.34
2023-02-15T01:29:18.580Z,102121.59
2023-02-15T01:31:46.241Z,102118.03
2023-02-15T01:34:15.888Z,102113.75
2023-02-15T01:39:04.673Z,102123.41
2023-02-15T01:41:33.809Z,102119.50
2023-02-15T01:44:03.865Z,102112.75
2023-02-15T01:46:46.341Z,102116.22
2023-02-15T01:49:17.919Z,102117.09
2023-02-15T01:51:49.239Z,102117.34
2023-02-15T01:54:28.561Z,102114.00
2023-02-15T01:57:05.898Z,102118.31
2023-02-15T01:59:37.193Z,102115.84
2023-02-15T02:02:08.218Z,102115.81
2023-02-15T02:04:46.599Z,102108.75
2023-02-15T02:07:17.112Z,102111.44
2023-02-15T02:09:46.064Z,102109.69
2023-02-15T02:12:14.809Z,102105.88
2023-02-15T02:14:43.301Z,102095.56
2023-02-15T02:17:17.801Z,102096.53
2023-02-15T02:20:22.408Z,102097.25
2023-02-15T02:22:59.043Z,102103.19
2023-02-15T02:25:53.241Z,102098.84
2023-02-15T02:28:48.812Z,102090.38
2023-02-15T02:31:43.933Z,102091.09
2023-02-15T02:34:14.097Z,102092.72
2023-02-15T02:36:53.505Z,102090.16
2023-02-15T02:39:29.375Z,102085.00
2023-02-15T02:42:06.907Z,102085.13
2023-02-15T02:44:44.552Z,102083.31
2023-02-15T02:47:28.023Z,102078.28
2023-02-15T02:50:10.214Z,102086.88
2023-02-15T02:52:45.233Z,102081.56
2023-02-15T02:55:22.493Z,102078.00
2023-02-15T02:58:22.552Z,102075.63
2023-02-15T03:01:12.674Z,102074.91
2023-02-15T03:03:48.427Z,102067.94
2023-02-15T03:06:55.694Z,102068.72
2023-02-15T03:09:35.837Z,102072.16
2023-02-15T03:12:04.707Z,102066.09
2023-02-15T03:14:36.470Z,102071.69
2023-02-15T03:17:06.889Z,102073.16
2023-02-15T03:19:38.229Z,102070.91
2023-02-15T03:22:12.856Z,102068.25
2023-02-15T03:24:54.185Z,102071.47
2023-02-15T03:27:26.845Z,102069.81
2023-02-15T03:30:00.647Z,102058.41
2023-02-15T03:32:31.657Z,102069.66
2023-02-15T03:34:59.553Z,102065.50
2023-02-15T03:37:34.306Z,102075.06
2023-02-15T03:40:41.968Z,102074.22
2023-02-15T03:43:19.385Z,102068.38
2023-02-15T03:45:55.970Z,102075.88
2023-02-15T03:48:31.206Z,102062.03
2023-02-15T03:51:24.726Z,102068.19
2023-02-15T03:53:53.834Z,102062.06
2023-02-15T03:56:21.741Z,102061.25
2023-02-15T03:59:08.333Z,102059.44
2023-02-15T04:01:58.800Z,102059.56
2023-02-15T04:04:32.966Z,102067.34
2023-02-15T04:07:00.874Z,102054.44
2023-02-15T04:09:47.385Z,102054.53
2023-02-15T04:12:15.003Z,102051.16
2023-02-15T04:15:01.319Z,102052.03
2023-02-15T04:17:28.963Z,102051.25
2023-02-15T04:20:15.475Z,102048.59
2023-02-15T04:23:01.681Z,102049.63
2023-02-15T04:25:29.598Z,102046.06
2023-02-15T04:27:57.104Z,102040.91
2023-02-15T04:30:26.717Z,102044.31
2023-02-15T04:32:55.751Z,102045.97
2023-02-15T04:35:23.567Z,102045.84
2023-02-15T04:37:51.096Z,102037.25
2023-02-15T04:40:19.786Z,102037.16
2023-02-15T04:42:50.138Z,102035.41
2023-02-15T04:45:18.941Z,102040.59
2023-02-15T04:47:46.798Z,102040.53
2023-02-15T04:50:14.839Z,102040.66
2023-02-15T04:52:42.422Z,102047.47
2023-02-15T04:55:10.263Z,102045.72
2023-02-15T04:57:37.782Z,102047.59
2023-02-15T05:00:06.216Z,102055.19
2023-02-15T05:02:33.906Z,102047.03
2023-02-15T05:05:01.935Z,102048.72
2023-02-15T05:07:29.516Z,102050.31
2023-02-15T05:09:57.305Z,102049.44
2023-02-15T05:12:24.876Z,102047.75
2023-02-15T05:14:52.769Z,102052.84
2023-02-15T05:17:20.262Z,102058.03
2023-02-15T05:19:48.053Z,102052.03
2023-02-15T05:22:15.640Z,102054.41
2023-02-15T05:25:02.302Z,102050.66
2023-02-15T05:27:48.845Z,102057.50
2023-02-15T05:30:16.915Z,102061.75
2023-02-15T05:32:44.651Z,102066.00
2023-02-15T05:35:16.877Z,102056.44
2023-02-15T05:37:44.430Z,102058.38
2023-02-15T05:40:12.669Z,102053.13
2023-02-15T05:42:40.178Z,102062.59
2023-02-15T05:45:08.459Z,102059.94
2023-02-15T05:47:35.993Z,102055.56
2023-02-15T05:50:03.892Z,102054.69
2023-02-15T05:52:31.456Z,102058.25
2023-02-15T05:55:01.194Z,102058.19
2023-02-15T05:57:29.337Z,102057.13
2023-02-15T05:59:57.288Z,102063.56
2023-02-15T06:02:24.791Z,102068.75
2023-02-15T06:04:52.685Z,102069.13
2023-02-15T06:07:20.159Z,102066.25
2023-02-15T06:09:47.995Z,102071.38
2023-02-15T06:12:15.622Z,102070.56
2023-02-15T06:14:43.818Z,102075.25
2023-02-15T06:17:11.500Z,102074.25
2023-02-15T06:19:39.461Z,102075.19
2023-02-15T06:22:07.537Z,102068.31
2023-02-15T06:24:35.425Z,102079.47
2023-02-15T06:27:02.946Z,102076.69
2023-02-15T06:29:30.767Z,102073.19
2023-02-15T06:31:58.376Z,102073.03
2023-02-15T06:34:26.253Z,102086.41
2023-02-15T06:36:53.736Z,102076.00
2023-02-15T06:39:21.589Z,102085.19
2023-02-15T06:41:49.267Z,102079.81
2023-02-15T06:44:17.100Z,102078.78
2023-02-15T06:46:44.701Z,102074.38
2023-02-15T06:49:12.614Z,102077.72
2023-02-15T06:51:40.289Z,102072.53
2023-02-15T06:54:08.071Z,102068.38
2023-02-15T06:56:35.662Z,102069.94
2023-02-15T06:59:04.216Z,102068.28
2023-02-15T07:01:31.868Z,102064.88
2023-02-15T07:04:00.207Z,102069.38
2023-02-15T07:06:31.569Z,102070.00
2023-02-15T07:08:59.655Z,102072.56
2023-02-15T07:11:45.768Z,102066.53
2023-02-15T07:14:13.785Z,102069.94
2023-02-15T07:16:41.481Z,102069.31
2023-02-15T07:19:09.431Z,102071.19
2023-02-15T07:21:37.557Z,102069.38
2023-02-15T07:24:05.650Z,102073.47
2023-02-15T07:26:33.685Z,102067.91
2023-02-15T07:29:01.485Z,102073.78
2023-02-15T07:31:29.192Z,102061.56
2023-02-15T07:33:57.072Z,102063.56
2023-02-15T07:36:24.672Z,102062.78
2023-02-15T07:38:52.435Z,102068.09
2023-02-15T07:41:20.006Z,102062.13
2023-02-15T07:43:47.871Z,102062.06
2023-02-15T07:46:17.760Z,102057.81
2023-02-15T07:48:46.203Z,102060.38
2023-02-15T07:51:15.126Z,102059.50
2023-02-15T07:53:43.596Z,102055.53
2023-02-15T07:56:14.020Z,102049.00
2023-02-15T07:58:56.900Z,102050.63
2023-02-15T08:01:30.801Z,102052.53
2023-02-15T08:03:59.001Z,102049.53
2023-02-15T08:06:29.838Z,102050.25
2023-02-15T08:08:58.414Z,102049.47
2023-02-15T08:11:37.143Z,102043.53
2023-02-15T08:14:16.495Z,102045.38
2023-02-15T08:16:49.623Z,102041.66
2023-02-15T08:19:23.706Z,102040.19
2023-02-15T08:21:52.669Z,102043.66
2023-02-15T08:24:22.723Z,102036.47
2023-02-15T08:26:51.560Z,102038.13
2023-02-15T08:29:23.414Z,102042.56
2023-02-15T08:31:54.330Z,102044.28
2023-02-15T08:34:22.551Z,102038.22
2023-02-15T08:36:50.101Z,102044.28
2023-02-15T08:39:18.033Z,102041.75
2023-02-15T08:41:47.386Z,102030.44
2023-02-15T08:44:18.023Z,102030.47
2023-02-15T08:46:47.652Z,102034.16
2023-02-15T08:49:22.114Z,102026.50
2023-02-15T08:51:50.664Z,102028.47
2023-02-15T08:54:21.760Z,102036.31
2023-02-15T08:56:49.430Z,102026.44
2023-02-15T08:59:22.780Z,102022.94
2023-02-15T09:01:52.549Z,102020.34
2023-02-15T09:04:21.751Z,102024.75
2023-02-15T09:06:51.580Z,102024.41
2023-02-15T09:09:20.471Z,102019.56
2023-02-15T09:11:54.601Z,102017.69
2023-02-15T09:14:27.481Z,102012.63
2023-02-15T09:16:55.647Z,102015.06
2023-02-15T09:19:25.034Z,102012.53
2023-02-15T09:21:52.912Z,102011.41
2023-02-15T09:24:20.777Z,102017.94
2023-02-15T09:26:49.644Z,102017.53
2023-02-15T09:29:19.586Z,102013.97
2023-02-15T09:31:49.921Z,102010.34
2023-02-15T09:34:20.136Z,102015.84
2023-02-15T09:36:49.006Z,102016.97
2023-02-15T09:39:30.408Z,102014.53
2023-02-15T09:42:19.701Z,102014.66
2023-02-15T09:45:14.133Z,102009.41
2023-02-15T09:48:00.215Z,102006.88
2023-02-15T09:50:36.353Z,102013.75
2023-02-15T09:53:25.881Z,102007.72
2023-02-15T09:56:20.146Z,102012.94
2023-02-15T09:59:00.298Z,102007.75
2023-02-15T10:01:54.267Z,102005.91
2023-02-15T10:04:40.346Z,102005.06
2023-02-15T10:07:20.797Z,102003.19
2023-02-15T10:10:00.646Z,102009.97
2023-02-15T10:12:40.421Z,102005.78
2023-02-15T10:15:15.456Z,101994.34
2023-02-15T10:18:16.999Z,101995.84
2023-02-15T10:21:19.807Z,101987.53
2023-02-15T10:23:55.202Z,101990.09
2023-02-15T10:26:23.857Z,101986.59
2023-02-15T10:29:17.167Z,101988.22
2023-02-15T10:31:49.956Z,101977.81
2023-02-15T10:34:19.883Z,101986.59
2023-02-15T10:37:05.989Z,101984.28
2023-02-15T10:39:36.548Z,101977.34
2023-02-15T10:42:22.427Z,101976.63
2023-02-15T10:45:03.466Z,101979.88
2023-02-15T10:47:46.094Z,101970.19
2023-02-15T10:50:28.060Z,101969.41
2023-02-15T10:53:17.572Z,101967.56
2023-02-15T10:56:13.215Z,101964.34
2023-02-15T10:58:55.879Z,101956.31
2023-02-15T11:01:27.056Z,101955.19
2023-02-15T11:04:22.665Z,101947.59
2023-02-15T11:06:58.711Z,101955.44
2023-02-15T11:09:34.398Z,101953.72
2023-02-15T11:12:02.526Z,101949.56
2023-02-15T11:14:33.093Z,101950.56
2023-02-15T11:17:13.259Z,101947.84
2023-02-15T11:20:03.660Z,101942.06
2023-02-15T11:22:34.704Z,101948.59
2023-02-15T11:25:03.371Z,101939.75
2023-02-15T11:27:34.852Z,101945.66
2023-02-15T11:30:13.927Z,101935.84
2023-02-15T11:32:47.474Z,101943.00
2023-02-15T11:35:14.975Z,101934.41
2023-02-15T11:37:54.636Z,101930.97
2023-02-15T11:40:48.898Z,101933.84
2023-02-15T11:43:19.431Z,101927.38
2023-02-15T11:45:47.541Z,101935.88
2023-02-15T11:48:16.772Z,101927.13
2023-02-15T11:50:45.929Z,101930.44
2023-02-15T11:53:15.552Z,101917.75
2023-02-15T11:55:48.397Z,101919.38
2023-02-15T11:58:16.224Z,101920.78
2023-02-15T12:00:47.732Z,101925.66
2023-02-15T12:03:49.877Z,101928.25
2023-02-15T12:06:30.795Z,101925.84
2023-02-15T12:09:23.497Z,101920.72
2023-02-15T12:11:51.244Z,101919.78
2023-02-15T12:14:19.829Z,101923.88
2023-02-15T12:16:52.303Z,101919.03
2023-02-15T12:19:51.581Z,101914.09
2023-02-15T12:22:24.833Z,101907.06
2023-02-15T12:24:56.456Z,101910.47
2023-02-15T12:27:31.139Z,101908.59
2023-02-15T12:30:05.137Z,101899.38
2023-02-15T12:32:37.113Z,101891.34
2023-02-15T12:35:51.378Z,101897.13
2023-02-15T12:38:25.836Z,101891.03
2023-02-15T12:41:01.802Z,101887.75
2023-02-15T12:43:34.843Z,101880.94
2023-02-15T12:46:22.509Z,101878.34
2023-02-15T12:49:09.013Z,101877.47
2023-02-15T12:51:48.868Z,101879.50
2023-02-15T12:54:33.470Z,101874.34
2023-02-15T12:57:34.062Z,101862.84
2023-02-15T13:00:25.397Z,101867.81
2023-02-15T13:02:55.855Z,101858.44
2023-02-15T13:05:35.565Z,101852.41
2023-02-15T13:08:21.873Z,101859.34
2023-02-15T13:11:12.246Z,101867.22
2023-02-15T13:13:56.292Z,101862.19
2023-02-15T13:16:34.220Z,101850.69
2023-02-15T13:19:19.104Z,101846.69
2023-02-15T13:21:49.449Z,101838.91
2023-02-15T13:24:41.639Z,101852.59
2023-02-15T13:27:19.698Z,101848.34
2023-02-15T13:30:00.261Z,101844.13
2023-02-15T13:32:41.899Z,101844.66
2023-02-15T13:35:18.737Z,101830.53
2023-02-15T13:38:17.805Z,101832.56
2023-02-15T13:41:02.644Z,101826.78
2023-02-15T13:44:08.296Z,101831.78
2023-02-15T13:47:14.550Z,101833.19
2023-02-15T13:49:45.120Z,101828.00
2023-02-15T13:52:21.019Z,101826.47
2023-02-15T13:55:21.894Z,101830.47
2023-02-15T13:57:57.820Z,101834.22
2023-02-15T14:00:36.490Z,101825.25
2023-02-15T14:03:20.065Z,101826.78
2023-02-15T14:06:15.143Z,101830.53
2023-02-15T14:09:07.421Z,101815.00
2023-02-15T14:11:40.637Z,101809.41
2023-02-15T14:14:48.956Z,101815.88
2023-02-15T14:17:47.782Z,101814.13
2023-02-15T14:20:37.563Z,101808.38
2023-02-15T14:23:39.626Z,101802.22
2023-02-15T14:26:37.301Z,101803.38
2023-02-15T14:29:08.193Z,101803.97
2023-02-15T14:31:42.249Z,101797.94
2023-02-15T14:34:22.382Z,101776.13
2023-02-15T14:36:52.632Z,101806.50
2023-02-15T14:39:50.966Z,101796.44
2023-02-15T14:43:12.622Z,101793.91
2023-02-15T14:46:22.101Z,101789.66
2023-02-15T14:48:51.904Z,101788.50
2023-02-15T14:51:40.696Z,101790.13
2023-02-15T14:54:10.014Z,101795.53
2023-02-15T14:56:39.945Z,101795.56
2023-02-15T14:59:17.313Z,101791.28
2023-02-15T15:02:03.977Z,101795.91
2023-02-15T15:04:46.187Z,101787.72
2023-02-15T15:07:16.436Z,101776.59
2023-02-15T15:09:47.338Z,101776.56
2023-02-15T15:12:14.869Z,101776.41
2023-02-15T15:14:45.163Z,101777.34
2023-02-15T15:17:33.572Z,101765.97
2023-02-15T15:20:02.419Z,101778.97
2023-02-15T15:22:32.470Z,101777.31
2023-02-15T15:25:06.286Z,101765.94
2023-02-15T15:27:55.445Z,101770.38
2023-02-15T15:30:23.689Z,101761.50
2023-02-15T15:32:57.657Z,101763.56
2023-02-15T15:36:03.814Z,101757.47
2023-02-15T15:39:18.475Z,101769.53
2023-02-15T15:42:13.079Z,101752.03
2023-02-15T15:44:59.767Z,101747.75
2023-02-15T15:47:34.922Z,101744.56
2023-02-15T15:50:07.642Z,101744.63
2023-02-15T15:52:39.657Z,101739.13
2023-02-15T15:55:17.891Z,101747.25
2023-02-15T15:57:50.640Z,101756.72
2023-02-15T16:00:40.364Z,101748.97
2023-02-15T16:03:15.733Z,101751.94
2023-02-15T16:05:43.484Z,101748.25
2023-02-15T16:08:11.396Z,101741.56
2023-02-15T16:10:39.272Z,101735.84
2023-02-15T16:13:08.288Z,101733.94
2023-02-15T16:15:45.839Z,101732.72
2023-02-15T16:18:18.498Z,101741.44
2023-02-15T16:21:01.142Z,101737.78
2023-02-15T16:23:37.689Z,101733.63
2023-02-15T16:26:32.529Z,101725.88
2023-02-15T16:29:00.487Z,101727.50
2023-02-15T16:31:28.273Z,101739.31
2023-02-15T16:33:56.662Z,101741.00
2023-02-15T16:36:27.534Z,101733.22
2023-02-15T16:38:58.279Z,101736.44
2023-02-15T16:41:29.041Z,101734.03
2023-02-15T16:44:00.737Z,101727.53
2023-02-15T16:46:33.330Z,101728.09
2023-02-15T16:49:06.690Z,101729.06
2023-02-15T16:51:36.287Z,101731.47
2023-02-15T16:54:15.469Z,101725.63
2023-02-15T16:56:47.024Z,101720.53
2023-02-15T16:59:45.920Z,101723.88
2023-02-15T17:02:42.994Z,101718.09
2023-02-15T17:05:14.586Z,101712.72
2023-02-15T17:07:49.513Z,101710.06
2023-02-15T17:10:33.978Z,101701.56
2023-02-15T17:13:02.426Z,101705.22
2023-02-15T17:15:39.615Z,101701.66
2023-02-15T17:18:18.792Z,101705.09
2023-02-15T17:20:49.179Z,101705.69
2023-02-15T17:23:41.174Z,101704.97
2023-02-15T17:26:20.540Z,101704.72
2023-02-15T17:28:54.218Z,101692.63
2023-02-15T17:31:25.517Z,101692.81
2023-02-15T17:33:55.846Z,101686.63
2023-02-15T17:36:26.349Z,101695.16
2023-02-15T17:38:59.864Z,101684.03
2023-02-15T17:41:28.647Z,101678.84
2023-02-15T17:43:56.582Z,101673.88
2023-02-15T17:46:25.754Z,101676.28
2023-02-15T17:48:56.092Z,101666.97
2023-02-15T17:51:24.424Z,101668.03
2023-02-15T17:54:10.602Z,101665.28
2023-02-15T17:56:39.583Z,101663.53
2023-02-15T17:59:07.502Z,101657.19
2023-02-15T18:01:59.328Z,101653.72
2023-02-15T18:04:45.888Z,101648.69
2023-02-15T18:07:32.873Z,101645.25
2023-02-15T18:10:19.297Z,101639.09
2023-02-15T18:12:47.142Z,101647.69
2023-02-15T18:15:14.703Z,101651.34
2023-02-15T18:17:47.785Z,101644.41
2023-02-15T18:20:36.962Z,101635.91
2023-02-15T18:23:06.014Z,101643.78
2023-02-15T18:25:33.575Z,101642.88
2023-02-15T18:28:01.443Z,101641.09
2023-02-15T18:30:29.276Z,101648.56
2023-02-15T18:32:59.013Z,101641.75
2023-02-15T18:35:32.901Z,101637.59
2023-02-15T18:38:02.054Z,101632.31
2023-02-15T18:40:30.313Z,101624.75
2023-02-15T18:42:58.267Z,101621.22
2023-02-15T18:45:33.143Z,101608.97
2023-02-15T18:48:01.309Z,101617.50
2023-02-15T18:50:34.111Z,101615.81
2023-02-15T18:53:04.041Z,101617.84
2023-02-15T18:55:35.443Z,101608.41
2023-02-15T18:58:04.143Z,101606.41
2023-02-15T19:00:34.933Z,101607.28
2023-02-15T19:03:03.655Z,101606.34
2023-02-15T19:05:33.242Z,101596.06
2023-02-15T19:08:02.450Z,101607.53
2023-02-15T19:10:32.039Z,101604.72
2023-02-15T19:12:59.897Z,101601.06
2023-02-15T19:15:32.615Z,101593.34
2023-02-15T19:18:00.451Z,101591.41
2023-02-15T19:20:35.508Z,101590.38
2023-02-15T19:23:04.795Z,101591.00
2023-02-15T19:25:37.693Z,101587.88
2023-02-15T19:28:15.305Z,101590.16
2023-02-15T19:30:43.096Z,101579.41
2023-02-15T19:33:19.520Z,101594.44
2023-02-15T19:35:52.513Z,101592.56
2023-02-15T19:38:26.126Z,101588.38
2023-02-15T19:40:55.594Z,101589.81
2023-02-15T19:43:26.183Z,101587.06
2023-02-15T19:45:54.065Z,101582.41
2023-02-15T19:48:21.963Z,101583.84
2023-02-15T19:50:50.507Z,101587.91
2023-02-15T19:53:27.334Z,101587.72
2023-02-15T19:55:55.432Z,101586.59
2023-02-15T19:58:24.019Z,101581.56
2023-02-15T20:00:52.338Z,101575.63
2023-02-15T20:03:20.529Z,101562.66
2023-02-15T20:05:48.572Z,101561.31
2023-02-15T20:08:19.333Z,101556.91
2023-02-15T20:14:24.454Z,101551.28
2023-02-15T20:16:52.630Z,101553.81
2023-02-15T20:19:20.293Z,101551.81
2023-02-15T20:21:54.600Z,101553.41
2023-02-15T20:24:24.749Z,101552.50
2023-02-15T20:26:52.657Z,101549.78
2023-02-15T20:29:20.413Z,101547.09
2023-02-15T20:31:48.530Z,101554.56
2023-02-15T20:34:16.162Z,101553.31
2023-02-15T20:36:44.014Z,101548.00
2023-02-15T20:39:20.014Z,101554.75
2023-02-15T20:41:48.200Z,101547.78
2023-02-15T20:44:34.457Z,101545.97
2023-02-15T20:47:02.777Z,101539.16
2023-02-15T20:49:30.456Z,101540.16
2023-02-15T20:51:58.806Z,101529.75
2023-02-15T20:54:33.160Z,101530.34
2023-02-15T20:57:01.704Z,101524.72
2023-02-15T20:59:32.471Z,101516.81
2023-02-15T21:02:16.220Z,101514.31
2023-02-15T21:04:43.878Z,101508.19
2023-02-15T21:07:16.814Z,101509.09
2023-02-15T21:09:45.575Z,101513.16
2023-02-15T21:12:16.471Z,101506.88
2023-02-15T21:14:45.408Z,101510.09
2023-02-15T21:17:15.550Z,101515.06
2023-02-15T21:19:43.531Z,101514.09
2023-02-15T21:22:14.112Z,101508.88
2023-02-15T21:24:50.175Z,101507.22
2023-02-15T21:27:18.538Z,101496.94
2023-02-15T21:29:46.220Z,101486.56
2023-02-15T21:32:14.527Z,101490.88
2023-02-15T21:34:42.173Z,101487.22
2023-02-15T21:37:35.291Z,101485.41
2023-02-15T21:40:05.796Z,101488.66
2023-02-15T21:42:52.216Z,101490.13
2023-02-15T21:45:38.652Z,101482.38
2023-02-15T21:48:06.643Z,101487.66
2023-02-15T21:50:54.615Z,101484.03
2023-02-15T21:53:33.904Z,101479.88
2023-02-15T21:56:04.972Z,101476.50
2023-02-15T21:58:36.503Z,101472.09
2023-02-15T22:01:04.470Z,101463.28
2023-02-15T22:03:38.134Z,101464.81
2023-02-15T22:06:06.212Z,101460.50
2023-02-15T22:08:34.389Z,101466.25
2023-02-15T22:11:02.539Z,101466.84
2023-02-15T22:13:33.981Z,101463.09
2023-02-15T22:16:03.219Z,101455.31
2023-02-15T22:18:34.095Z,101458.03
2023-02-15T22:21:03.696Z,101448.66
2023-02-15T22:23:32.136Z,101441.31
2023-02-15T22:26:04.313Z,101433.13
2023-02-15T22:28:38.743Z,101424.47
2023-02-15T22:31:12.763Z,101426.84
2023-02-15T22:33:40.618Z,101422.88
2023-02-15T22:36:24.423Z,101423.88
2023-02-15T22:38:53.347Z,101417.53
2023-02-15T22:41:22.710Z,101417.34
2023-02-15T22:43:50.705Z,101417.88
2023-02-15T22:46:21.178Z,101408.03
2023-02-15T22:48:50.304Z,101411.50
2023-02-15T22:51:21.313Z,101414.84
2023-02-15T22:53:49.736Z,101413.13
2023-02-15T22:56:21.489Z,101413.78
2023-02-15T22:58:50.549Z,101397.03
2023-02-15T23:01:41.867Z,101412.50
2023-02-15T23:04:18.500Z,101409.88
2023-02-15T23:06:46.942Z,101409.00
2023-02-15T23:09:15.703Z,101408.09
2023-02-15T23:11:45.841Z,101395.84
2023-02-15T23:14:36.242Z,101387.31
2023-02-15T23:17:04.167Z,101386.47
2023-02-15T23:19:32.186Z,101390.78
2023-02-15T23:21:59.841Z,101395.69
2023-02-15T23:24:30.364Z,101380.75
2023-02-15T23:27:18.173Z,101388.94
2023-02-15T23:29:46.640Z,101382.06
2023-02-15T23:32:15.334Z,101384.22
2023-02-15T23:34:43.302Z,101380.41
2023-02-15T23:37:13.152Z,101372.63
2023-02-15T23:39:59.844Z,101379.69
2023-02-15T23:42:31.751Z,101380.13
2023-02-15T23:45:00.208Z,101361.97
2023-02-15T23:47:53.962Z,101371.69
2023-02-15T23:50:26.437Z,101364.44
2023-02-15T23:52:55.592Z,101364.16
2023-02-15T23:55:28.345Z,101355.47
2023-02-15T23:57:55.932Z,101352.47
